sensor_id;sensor_type;location;lat;lon;timestamp;temperature;humidity
8093;DHT22;4089;52.420;13.334;2023-04-25T00:01:30;9.10;99.90
8093;DHT22;4089;52.420;13.334;2023-04-25T00:03:56;9.10;99.90
8093;DHT22;4089;52.420;13.334;2023-04-25T00:06:24;9.00;99.90
8093;DHT22;4089;52.420;13.334;2023-04-25T00:08:53;9.00;99.90
8093;DHT22;4089;52.420;13.334;2023-04-25T00:11:20;9.00;99.90
8093;DHT22;4089;52.420;13.334;2023-04-25T00:13:47;9.00;99.90
8093;DHT22;4089;52.420;13.334;2023-04-25T00:16:16;9.00;99.90
8093;DHT22;4089;52.420;13.334;2023-04-25T00:18:43;9.00;99.90
8093;DHT22;4089;52.420;13.334;2023-04-25T00:21:11;9.00;99.90
8093;DHT22;4089;52.420;13.334;2023-04-25T00:23:37;9.00;99.90
8093;DHT22;4089;52.420;13.334;2023-04-25T00:26:05;9.00;99.90
8093;DHT22;4089;52.420;13.334;2023-04-25T00:28:32;9.00;99.90
8093;DHT22;4089;52.420;13.334;2023-04-25T00:30:58;9.10;99.90
8093;DHT22;4089;52.420;13.334;2023-04-25T00:33:25;9.10;99.90
8093;DHT22;4089;52.420;13.334;2023-04-25T00:35:52;9.10;99.90
8093;DHT22;4089;52.420;13.334;2023-04-25T00:38:18;9.10;99.90
8093;DHT22;4089;52.420;13.334;2023-04-25T00:40:45;9.20;99.90
8093;DHT22;4089;52.420;13.334;2023-04-25T00:43:12;9.20;99.90
8093;DHT22;4089;52.420;13.334;2023-04-25T00:45:39;9.20;99.90
8093;DHT22;4089;52.420;13.334;2023-04-25T00:48:06;9.20;99.90
8093;DHT22;4089;52.420;13.334;2023-04-25T00:50:34;9.20;99.90
8093;DHT22;4089;52.420;13.334;2023-04-25T00:53:01;9.20;99.90
8093;DHT22;4089;52.420;13.334;2023-04-25T00:55:29;9.20;99.90
8093;DHT22;4089;52.420;13.334;2023-04-25T00:57:58;9.30;99.90
8093;DHT22;4089;52.420;13.334;2023-04-25T01:00:24;9.30;99.90
8093;DHT22;4089;52.420;13.334;2023-04-25T01:02:52;9.30;99.90
8093;DHT22;4089;52.420;13.334;2023-04-25T01:05:19;9.30;99.90
8093;DHT22;4089;52.420;13.334;2023-04-25T01:07:45;9.30;99.90
8093;DHT22;4089;52.420;13.334;2023-04-25T01:10:13;9.30;99.90
8093;DHT22;4089;52.420;13.334;2023-04-25T01:12:40;9.30;99.90
8093;DHT22;4089;52.420;13.334;2023-04-25T01:15:07;9.20;99.90
8093;DHT22;4089;52.420;13.334;2023-04-25T01:17:35;9.20;99.90
8093;DHT22;4089;52.420;13.334;2023-04-25T01:20:05;9.20;99.90
8093;DHT22;4089;52.420;13.334;2023-04-25T01:22:34;9.20;99.90
8093;DHT22;4089;52.420;13.334;2023-04-25T01:25:01;9.20;99.90
8093;DHT22;4089;52.420;13.334;2023-04-25T01:27:29;9.10;99.90
8093;DHT22;4089;52.420;13.334;2023-04-25T01:29:56;9.20;99.90
8093;DHT22;4089;52.420;13.334;2023-04-25T01:32:23;9.20;99.90
8093;DHT22;4089;52.420;13.334;2023-04-25T01:34:50;9.20;99.90
8093;DHT22;4089;52.420;13.334;2023-04-25T01:37:17;9.10;99.90
8093;DHT22;4089;52.420;13.334;2023-04-25T01:39:44;9.10;99.90
8093;DHT22;4089;52.420;13.334;2023-04-25T01:42:11;9.20;99.90
8093;DHT22;4089;52.420;13.334;2023-04-25T01:44:39;9.20;99.90
8093;DHT22;4089;52.420;13.334;2023-04-25T01:47:05;9.20;99.90
8093;DHT22;4089;52.420;13.334;2023-04-25T01:49:32;9.20;99.90
8093;DHT22;4089;52.420;13.334;2023-04-25T01:51:59;9.20;99.90
8093;DHT22;4089;52.420;13.334;2023-04-25T01:54:26;9.20;99.90
8093;DHT22;4089;52.420;13.334;2023-04-25T01:56:53;9.20;99.90
8093;DHT22;4089;52.420;13.334;2023-04-25T01:59:19;9.20;99.90
8093;DHT22;4089;52.420;13.334;2023-04-25T02:01:48;9.20;99.90
8093;DHT22;4089;52.420;13.334;2023-04-25T02:04:15;9.10;99.90
8093;DHT22;4089;52.420;13.334;2023-04-25T02:06:42;9.10;99.90
8093;DHT22;4089;52.420;13.334;2023-04-25T02:09:08;9.10;99.90
8093;DHT22;4089;52.420;13.334;2023-04-25T02:11:35;9.10;99.90
8093;DHT22;4089;52.420;13.334;2023-04-25T02:14:02;9.20;99.90
8093;DHT22;4089;52.420;13.334;2023-04-25T02:16:29;9.20;99.90
8093;DHT22;4089;52.420;13.334;2023-04-25T02:18:57;9.20;99.90
8093;DHT22;4089;52.420;13.334;2023-04-25T02:21:24;9.20;99.90
8093;DHT22;4089;52.420;13.334;2023-04-25T02:23:50;9.10;99.90
8093;DHT22;4089;52.420;13.334;2023-04-25T02:26:19;9.10;99.90
8093;DHT22;4089;52.420;13.334;2023-04-25T02:28:46;9.10;99.90
8093;DHT22;4089;52.420;13.334;2023-04-25T02:31:12;9.10;99.90
8093;DHT22;4089;52.420;13.334;2023-04-25T02:33:39;9.20;99.90
8093;DHT22;4089;52.420;13.334;2023-04-25T02:36:06;9.10;99.90
8093;DHT22;4089;52.420;13.334;2023-04-25T02:38:33;9.00;99.90
8093;DHT22;4089;52.420;13.334;2023-04-25T02:41:00;9.10;99.90
8093;DHT22;4089;52.420;13.334;2023-04-25T02:43:27;9.00;99.90
8093;DHT22;4089;52.420;13.334;2023-04-25T02:45:54;9.00;99.90
8093;DHT22;4089;52.420;13.334;2023-04-25T02:48:20;9.00;99.90
8093;DHT22;4089;52.420;13.334;2023-04-25T02:50:47;9.00;99.90
8093;DHT22;4089;52.420;13.334;2023-04-25T02:53:14;9.00;99.90
8093;DHT22;4089;52.420;13.334;2023-04-25T02:55:41;9.00;99.90
8093;DHT22;4089;52.420;13.334;2023-04-25T02:58:08;8.90;99.90
8093;DHT22;4089;52.420;13.334;2023-04-25T03:00:34;9.00;99.90
8093;DHT22;4089;52.420;13.334;2023-04-25T03:03:01;9.00;99.90
8093;DHT22;4089;52.420;13.334;2023-04-25T03:05:28;9.00;99.90
8093;DHT22;4089;52.420;13.334;2023-04-25T03:07:55;9.00;99.90
8093;DHT22;4089;52.420;13.334;2023-04-25T03:10:22;8.90;99.90
8093;DHT22;4089;52.420;13.334;2023-04-25T03:12:49;9.00;99.90
8093;DHT22;4089;52.420;13.334;2023-04-25T03:15:15;8.90;99.90
8093;DHT22;4089;52.420;13.334;2023-04-25T03:17:43;8.90;99.90
8093;DHT22;4089;52.420;13.334;2023-04-25T03:20:10;8.90;99.90
8093;DHT22;4089;52.420;13.334;2023-04-25T03:22:37;8.90;99.90
8093;DHT22;4089;52.420;13.334;2023-04-25T03:25:04;9.00;99.90
8093;DHT22;4089;52.420;13.334;2023-04-25T03:27:31;8.90;99.90
8093;DHT22;4089;52.420;13.334;2023-04-25T03:29:58;8.90;99.90
8093;DHT22;4089;52.420;13.334;2023-04-25T03:32:25;8.90;99.90
8093;DHT22;4089;52.420;13.334;2023-04-25T03:34:51;8.80;99.90
8093;DHT22;4089;52.420;13.334;2023-04-25T03:37:18;8.80;99.90
8093;DHT22;4089;52.420;13.334;2023-04-25T03:39:45;8.90;99.90
8093;DHT22;4089;52.420;13.334;2023-04-25T03:42:12;8.90;99.90
8093;DHT22;4089;52.420;13.334;2023-04-25T03:44:38;8.90;99.90
8093;DHT22;4089;52.420;13.334;2023-04-25T03:47:05;9.00;99.90
8093;DHT22;4089;52.420;13.334;2023-04-25T03:49:33;8.90;99.90
8093;DHT22;4089;52.420;13.334;2023-04-25T03:52:00;8.90;99.90
8093;DHT22;4089;52.420;13.334;2023-04-25T03:54:27;8.90;99.90
8093;DHT22;4089;52.420;13.334;2023-04-25T03:56:53;8.90;99.90
8093;DHT22;4089;52.420;13.334;2023-04-25T03:59:20;8.90;99.90
8093;DHT22;4089;52.420;13.334;2023-04-25T04:01:47;8.90;99.90
8093;DHT22;4089;52.420;13.334;2023-04-25T04:04:14;8.90;99.90
8093;DHT22;4089;52.420;13.334;2023-04-25T04:06:41;8.90;99.90
8093;DHT22;4089;52.420;13.334;2023-04-25T04:09:08;8.90;99.90
8093;DHT22;4089;52.420;13.334;2023-04-25T04:11:38;8.80;99.90
8093;DHT22;4089;52.420;13.334;2023-04-25T04:14:06;8.80;99.90
8093;DHT22;4089;52.420;13.334;2023-04-25T04:16:33;8.80;99.90
8093;DHT22;4089;52.420;13.334;2023-04-25T04:19:00;8.70;99.90
8093;DHT22;4089;52.420;13.334;2023-04-25T04:21:27;8.80;99.90
8093;DHT22;4089;52.420;13.334;2023-04-25T04:23:53;8.70;99.90
8093;DHT22;4089;52.420;13.334;2023-04-25T04:26:21;8.70;99.90
8093;DHT22;4089;52.420;13.334;2023-04-25T04:28:50;8.70;99.90
8093;DHT22;4089;52.420;13.334;2023-04-25T04:31:18;8.80;99.90
8093;DHT22;4089;52.420;13.334;2023-04-25T04:33:46;8.80;99.90
8093;DHT22;4089;52.420;13.334;2023-04-25T04:36:13;8.80;99.90
8093;DHT22;4089;52.420;13.334;2023-04-25T04:38:41;8.80;99.90
8093;DHT22;4089;52.420;13.334;2023-04-25T04:41:08;8.80;99.90
8093;DHT22;4089;52.420;13.334;2023-04-25T04:43:35;8.80;99.90
8093;DHT22;4089;52.420;13.334;2023-04-25T04:46:03;8.80;99.90
8093;DHT22;4089;52.420;13.334;2023-04-25T04:48:33;8.80;99.90
8093;DHT22;4089;52.420;13.334;2023-04-25T04:51:00;8.90;99.90
8093;DHT22;4089;52.420;13.334;2023-04-25T04:53:27;8.90;99.90
8093;DHT22;4089;52.420;13.334;2023-04-25T04:55:54;9.00;99.90
8093;DHT22;4089;52.420;13.334;2023-04-25T04:58:21;8.90;99.90
8093;DHT22;4089;52.420;13.334;2023-04-25T05:00:48;8.90;99.90
8093;DHT22;4089;52.420;13.334;2023-04-25T05:03:15;9.00;99.90
8093;DHT22;4089;52.420;13.334;2023-04-25T05:05:42;9.00;99.90
8093;DHT22;4089;52.420;13.334;2023-04-25T05:08:09;9.00;99.90
8093;DHT22;4089;52.420;13.334;2023-04-25T05:10:36;9.00;99.90
8093;DHT22;4089;52.420;13.334;2023-04-25T05:13:03;9.00;99.90
8093;DHT22;4089;52.420;13.334;2023-04-25T05:15:29;9.00;99.90
8093;DHT22;4089;52.420;13.334;2023-04-25T05:17:56;9.00;99.90
8093;DHT22;4089;52.420;13.334;2023-04-25T05:20:23;9.10;99.90
8093;DHT22;4089;52.420;13.334;2023-04-25T05:22:50;9.00;99.90
8093;DHT22;4089;52.420;13.334;2023-04-25T05:25:17;9.00;99.90
8093;DHT22;4089;52.420;13.334;2023-04-25T05:27:44;9.10;99.90
8093;DHT22;4089;52.420;13.334;2023-04-25T05:30:11;9.20;99.90
8093;DHT22;4089;52.420;13.334;2023-04-25T05:32:37;9.20;99.90
8093;DHT22;4089;52.420;13.334;2023-04-25T05:35:05;9.10;99.90
8093;DHT22;4089;52.420;13.334;2023-04-25T05:37:33;9.10;99.90
8093;DHT22;4089;52.420;13.334;2023-04-25T05:40:00;9.10;99.90
8093;DHT22;4089;52.420;13.334;2023-04-25T05:42:27;9.00;99.90
8093;DHT22;4089;52.420;13.334;2023-04-25T05:44:53;9.10;99.90
8093;DHT22;4089;52.420;13.334;2023-04-25T05:47:20;9.20;99.90
8093;DHT22;4089;52.420;13.334;2023-04-25T05:49:47;9.30;99.90
8093;DHT22;4089;52.420;13.334;2023-04-25T05:52:13;9.40;99.90
8093;DHT22;4089;52.420;13.334;2023-04-25T05:54:41;9.40;99.90
8093;DHT22;4089;52.420;13.334;2023-04-25T05:57:08;9.50;99.90
8093;DHT22;4089;52.420;13.334;2023-04-25T05:59:35;9.50;99.90
8093;DHT22;4089;52.420;13.334;2023-04-25T06:02:02;9.50;99.90
8093;DHT22;4089;52.420;13.334;2023-04-25T06:04:29;9.40;99.90
8093;DHT22;4089;52.420;13.334;2023-04-25T06:06:56;9.40;99.90
8093;DHT22;4089;52.420;13.334;2023-04-25T06:09:23;9.40;99.90
8093;DHT22;4089;52.420;13.334;2023-04-25T06:11:49;9.40;99.90
8093;DHT22;4089;52.420;13.334;2023-04-25T06:14:16;9.50;99.90
8093;DHT22;4089;52.420;13.334;2023-04-25T06:16:44;9.40;99.90
8093;DHT22;4089;52.420;13.334;2023-04-25T06:19:11;9.50;99.90
8093;DHT22;4089;52.420;13.334;2023-04-25T06:21:38;9.50;99.90
8093;DHT22;4089;52.420;13.334;2023-04-25T06:24:07;9.40;99.90
8093;DHT22;4089;52.420;13.334;2023-04-25T06:26:37;9.40;99.90
8093;DHT22;4089;52.420;13.334;2023-04-25T06:29:04;9.30;99.90
8093;DHT22;4089;52.420;13.334;2023-04-25T06:31:31;9.40;99.90
8093;DHT22;4089;52.420;13.334;2023-04-25T06:33:59;9.30;99.90
8093;DHT22;4089;52.420;13.334;2023-04-25T06:36:26;9.20;99.90
8093;DHT22;4089;52.420;13.334;2023-04-25T06:38:54;9.20;99.90
8093;DHT22;4089;52.420;13.334;2023-04-25T06:41:21;9.30;99.90
8093;DHT22;4089;52.420;13.334;2023-04-25T06:43:48;9.20;99.90
8093;DHT22;4089;52.420;13.334;2023-04-25T06:46:14;9.30;99.90
8093;DHT22;4089;52.420;13.334;2023-04-25T06:48:41;9.40;99.90
8093;DHT22;4089;52.420;13.334;2023-04-25T06:51:08;9.50;99.90
8093;DHT22;4089;52.420;13.334;2023-04-25T06:53:35;9.40;99.90
8093;DHT22;4089;52.420;13.334;2023-04-25T06:56:02;9.40;99.90
8093;DHT22;4089;52.420;13.334;2023-04-25T06:58:29;9.50;99.90
8093;DHT22;4089;52.420;13.334;2023-04-25T07:00:56;9.60;99.90
8093;DHT22;4089;52.420;13.334;2023-04-25T07:03:23;9.50;99.90
8093;DHT22;4089;52.420;13.334;2023-04-25T07:05:50;9.50;99.90
8093;DHT22;4089;52.420;13.334;2023-04-25T07:08:17;9.50;99.90
8093;DHT22;4089;52.420;13.334;2023-04-25T07:10:44;9.60;99.90
8093;DHT22;4089;52.420;13.334;2023-04-25T07:13:15;9.50;99.90
8093;DHT22;4089;52.420;13.334;2023-04-25T07:15:43;9.40;99.90
8093;DHT22;4089;52.420;13.334;2023-04-25T07:18:10;9.40;99.90
8093;DHT22;4089;52.420;13.334;2023-04-25T07:20:37;9.20;99.90
8093;DHT22;4089;52.420;13.334;2023-04-25T07:23:04;9.30;99.90
8093;DHT22;4089;52.420;13.334;2023-04-25T07:25:31;9.30;99.90
8093;DHT22;4089;52.420;13.334;2023-04-25T07:27:58;9.20;99.90
8093;DHT22;4089;52.420;13.334;2023-04-25T07:30:24;9.10;99.90
8093;DHT22;4089;52.420;13.334;2023-04-25T07:32:52;9.00;99.90
8093;DHT22;4089;52.420;13.334;2023-04-25T07:35:19;9.00;99.90
8093;DHT22;4089;52.420;13.334;2023-04-25T07:37:46;8.80;99.90
8093;DHT22;4089;52.420;13.334;2023-04-25T07:40:13;8.90;99.90
8093;DHT22;4089;52.420;13.334;2023-04-25T07:42:42;9.00;99.90
8093;DHT22;4089;52.420;13.334;2023-04-25T07:45:09;9.10;99.90
8093;DHT22;4089;52.420;13.334;2023-04-25T07:47:36;9.10;99.90
8093;DHT22;4089;52.420;13.334;2023-04-25T07:50:03;9.10;99.90
8093;DHT22;4089;52.420;13.334;2023-04-25T07:52:31;9.20;99.90
8093;DHT22;4089;52.420;13.334;2023-04-25T07:54:58;9.20;99.90
8093;DHT22;4089;52.420;13.334;2023-04-25T07:57:25;9.20;99.90
8093;DHT22;4089;52.420;13.334;2023-04-25T07:59:52;9.20;99.90
8093;DHT22;4089;52.420;13.334;2023-04-25T08:02:19;9.30;99.90
8093;DHT22;4089;52.420;13.334;2023-04-25T08:04:46;9.30;99.90
8093;DHT22;4089;52.420;13.334;2023-04-25T08:07:13;9.40;99.90
8093;DHT22;4089;52.420;13.334;2023-04-25T08:09:40;9.30;99.90
8093;DHT22;4089;52.420;13.334;2023-04-25T08:12:07;9.30;99.90
8093;DHT22;4089;52.420;13.334;2023-04-25T08:14:34;9.50;99.90
8093;DHT22;4089;52.420;13.334;2023-04-25T08:17:03;9.50;99.90
8093;DHT22;4089;52.420;13.334;2023-04-25T08:19:30;9.50;99.90
8093;DHT22;4089;52.420;13.334;2023-04-25T08:21:57;9.60;99.90
8093;DHT22;4089;52.420;13.334;2023-04-25T08:24:24;9.70;99.90
8093;DHT22;4089;52.420;13.334;2023-04-25T08:26:51;9.70;99.90
8093;DHT22;4089;52.420;13.334;2023-04-25T08:29:18;9.70;99.90
8093;DHT22;4089;52.420;13.334;2023-04-25T08:31:45;9.80;99.90
8093;DHT22;4089;52.420;13.334;2023-04-25T08:34:12;9.80;99.90
8093;DHT22;4089;52.420;13.334;2023-04-25T08:36:39;10.00;99.90
8093;DHT22;4089;52.420;13.334;2023-04-25T08:39:06;10.10;99.90
8093;DHT22;4089;52.420;13.334;2023-04-25T08:41:36;10.20;99.90
8093;DHT22;4089;52.420;13.334;2023-04-25T08:44:05;10.30;99.90
8093;DHT22;4089;52.420;13.334;2023-04-25T08:46:32;10.20;99.90
8093;DHT22;4089;52.420;13.334;2023-04-25T08:49:02;10.30;99.90
8093;DHT22;4089;52.420;13.334;2023-04-25T08:51:32;10.30;99.90
8093;DHT22;4089;52.420;13.334;2023-04-25T08:54:18;10.30;99.90
8093;DHT22;4089;52.420;13.334;2023-04-25T08:57:02;10.20;99.90
8093;DHT22;4089;52.420;13.334;2023-04-25T08:59:32;10.00;99.90
8093;DHT22;4089;52.420;13.334;2023-04-25T09:02:01;9.90;99.90
8093;DHT22;4089;52.420;13.334;2023-04-25T09:04:32;9.80;99.90
8093;DHT22;4089;52.420;13.334;2023-04-25T09:06:59;10.00;99.90
8093;DHT22;4089;52.420;13.334;2023-04-25T09:09:26;10.30;99.90
8093;DHT22;4089;52.420;13.334;2023-04-25T09:11:54;10.50;99.90
8093;DHT22;4089;52.420;13.334;2023-04-25T09:14:22;10.60;99.90
8093;DHT22;4089;52.420;13.334;2023-04-25T09:17:02;10.70;99.90
8093;DHT22;4089;52.420;13.334;2023-04-25T09:19:32;10.90;99.90
8093;DHT22;4089;52.420;13.334;2023-04-25T09:22:03;11.00;99.90
8093;DHT22;4089;52.420;13.334;2023-04-25T09:24:42;11.20;99.50
8093;DHT22;4089;52.420;13.334;2023-04-25T09:27:11;11.10;98.50
8093;DHT22;4089;52.420;13.334;2023-04-25T09:29:40;10.90;98.40
8093;DHT22;4089;52.420;13.334;2023-04-25T09:34:42;10.80;98.50
8093;DHT22;4089;52.420;13.334;2023-04-25T09:37:11;11.00;98.90
8093;DHT22;4089;52.420;13.334;2023-04-25T09:39:38;10.90;98.40
8093;DHT22;4089;52.420;13.334;2023-04-25T09:42:06;11.10;98.40
8093;DHT22;4089;52.420;13.334;2023-04-25T09:44:32;11.20;98.50
8093;DHT22;4089;52.420;13.334;2023-04-25T09:46:59;11.00;98.00
8093;DHT22;4089;52.420;13.334;2023-04-25T09:49:26;11.10;98.00
8093;DHT22;4089;52.420;13.334;2023-04-25T09:51:57;11.00;98.60
8093;DHT22;4089;52.420;13.334;2023-04-25T09:54:25;11.10;98.20
8093;DHT22;4089;52.420;13.334;2023-04-25T09:56:53;11.00;97.00
8093;DHT22;4089;52.420;13.334;2023-04-25T09:59:21;11.00;97.00
8093;DHT22;4089;52.420;13.334;2023-04-25T10:01:52;11.00;96.20
8093;DHT22;4089;52.420;13.334;2023-04-25T10:04:23;11.00;95.60
8093;DHT22;4089;52.420;13.334;2023-04-25T10:06:52;11.10;96.40
8093;DHT22;4089;52.420;13.334;2023-04-25T10:09:21;11.00;96.10
8093;DHT22;4089;52.420;13.334;2023-04-25T10:11:50;11.10;95.60
8093;DHT22;4089;52.420;13.334;2023-04-25T10:14:18;11.10;94.90
8093;DHT22;4089;52.420;13.334;2023-04-25T10:16:47;11.30;95.30
8093;DHT22;4089;52.420;13.334;2023-04-25T10:19:14;11.40;95.10
8093;DHT22;4089;52.420;13.334;2023-04-25T10:21:56;11.50;95.10
8093;DHT22;4089;52.420;13.334;2023-04-25T10:24:25;11.40;93.90
8093;DHT22;4089;52.420;13.334;2023-04-25T10:26:52;11.40;94.20
8093;DHT22;4089;52.420;13.334;2023-04-25T10:29:24;11.40;93.60
8093;DHT22;4089;52.420;13.334;2023-04-25T10:31:51;11.40;93.00
8093;DHT22;4089;52.420;13.334;2023-04-25T10:34:19;11.50;93.20
8093;DHT22;4089;52.420;13.334;2023-04-25T10:36:51;11.50;91.80
8093;DHT22;4089;52.420;13.334;2023-04-25T10:39:26;11.80;91.90
8093;DHT22;4089;52.420;13.334;2023-04-25T10:41:56;11.70;91.70
8093;DHT22;4089;52.420;13.334;2023-04-25T10:44:31;11.80;92.60
8093;DHT22;4089;52.420;13.334;2023-04-25T10:47:00;11.80;91.80
8093;DHT22;4089;52.420;13.334;2023-04-25T10:52:17;11.80;91.10
8093;DHT22;4089;52.420;13.334;2023-04-25T10:54:52;11.70;92.20
8093;DHT22;4089;52.420;13.334;2023-04-25T10:57:29;11.50;91.60
8093;DHT22;4089;52.420;13.334;2023-04-25T11:00:00;11.50;91.70
8093;DHT22;4089;52.420;13.334;2023-04-25T11:02:28;11.50;91.10
8093;DHT22;4089;52.420;13.334;2023-04-25T11:04:56;11.60;91.20
8093;DHT22;4089;52.420;13.334;2023-04-25T11:07:30;11.60;89.50
8093;DHT22;4089;52.420;13.334;2023-04-25T11:10:01;11.20;86.70
8093;DHT22;4089;52.420;13.334;2023-04-25T11:12:31;11.00;88.10
8093;DHT22;4089;52.420;13.334;2023-04-25T11:14:59;11.20;87.60
8093;DHT22;4089;52.420;13.334;2023-04-25T11:17:28;11.20;88.30
8093;DHT22;4089;52.420;13.334;2023-04-25T11:19:55;11.20;88.50
8093;DHT22;4089;52.420;13.334;2023-04-25T11:22:23;11.10;88.00
8093;DHT22;4089;52.420;13.334;2023-04-25T11:24:50;10.90;89.10
8093;DHT22;4089;52.420;13.334;2023-04-25T11:27:17;10.80;90.20
8093;DHT22;4089;52.420;13.334;2023-04-25T11:29:44;10.80;90.40
8093;DHT22;4089;52.420;13.334;2023-04-25T11:32:11;10.70;90.10
8093;DHT22;4089;52.420;13.334;2023-04-25T11:34:38;10.60;88.20
8093;DHT22;4089;52.420;13.334;2023-04-25T11:37:05;10.50;89.00
8093;DHT22;4089;52.420;13.334;2023-04-25T11:39:32;10.30;85.90
8093;DHT22;4089;52.420;13.334;2023-04-25T11:42:00;10.30;88.30
8093;DHT22;4089;52.420;13.334;2023-04-25T11:44:30;10.30;85.30
8093;DHT22;4089;52.420;13.334;2023-04-25T11:46:57;10.30;85.80
8093;DHT22;4089;52.420;13.334;2023-04-25T11:49:24;10.40;85.60
8093;DHT22;4089;52.420;13.334;2023-04-25T11:51:51;10.40;81.70
8093;DHT22;4089;52.420;13.334;2023-04-25T11:54:18;10.40;82.30
8093;DHT22;4089;52.420;13.334;2023-04-25T11:56:45;10.60;82.40
8093;DHT22;4089;52.420;13.334;2023-04-25T11:59:13;10.50;82.50
8093;DHT22;4089;52.420;13.334;2023-04-25T12:01:41;10.40;80.70
8093;DHT22;4089;52.420;13.334;2023-04-25T12:04:20;10.50;81.20
8093;DHT22;4089;52.420;13.334;2023-04-25T12:06:49;10.60;82.70
8093;DHT22;4089;52.420;13.334;2023-04-25T12:09:27;10.70;82.50
8093;DHT22;4089;52.420;13.334;2023-04-25T12:11:55;10.80;82.10
8093;DHT22;4089;52.420;13.334;2023-04-25T12:14:24;10.90;83.30
8093;DHT22;4089;52.420;13.334;2023-04-25T12:16:55;11.00;83.30
8093;DHT22;4089;52.420;13.334;2023-04-25T12:19:24;10.90;82.50
8093;DHT22;4089;52.420;13.334;2023-04-25T12:21:51;10.70;80.50
8093;DHT22;4089;52.420;13.334;2023-04-25T12:24:25;10.70;79.90
8093;DHT22;4089;52.420;13.334;2023-04-25T12:27:04;10.90;77.00
8093;DHT22;4089;52.420;13.334;2023-04-25T12:29:32;10.90;75.30
8093;DHT22;4089;52.420;13.334;2023-04-25T12:32:15;11.00;75.50
8093;DHT22;4089;52.420;13.334;2023-04-25T12:34:42;11.10;75.80
8093;DHT22;4089;52.420;13.334;2023-04-25T12:37:09;11.20;77.50
8093;DHT22;4089;52.420;13.334;2023-04-25T12:39:36;11.40;76.00
8093;DHT22;4089;52.420;13.334;2023-04-25T12:42:03;11.40;75.00
8093;DHT22;4089;52.420;13.334;2023-04-25T12:44:33;11.60;75.40
8093;DHT22;4089;52.420;13.334;2023-04-25T12:47:00;11.80;76.20
8093;DHT22;4089;52.420;13.334;2023-04-25T12:49:27;11.70;76.80
8093;DHT22;4089;52.420;13.334;2023-04-25T12:51:54;11.50;77.30
8093;DHT22;4089;52.420;13.334;2023-04-25T12:54:21;11.30;76.50
8093;DHT22;4089;52.420;13.334;2023-04-25T12:56:48;11.20;77.10
8093;DHT22;4089;52.420;13.334;2023-04-25T12:59:15;11.10;77.40
8093;DHT22;4089;52.420;13.334;2023-04-25T13:01:41;11.10;78.30
8093;DHT22;4089;52.420;13.334;2023-04-25T13:04:09;11.10;79.70
8093;DHT22;4089;52.420;13.334;2023-04-25T13:06:38;11.10;77.70
8093;DHT22;4089;52.420;13.334;2023-04-25T13:09:05;11.00;78.60
8093;DHT22;4089;52.420;13.334;2023-04-25T13:11:33;10.90;78.40
8093;DHT22;4089;52.420;13.334;2023-04-25T13:14:00;10.90;77.90
8093;DHT22;4089;52.420;13.334;2023-04-25T13:16:27;10.90;79.00
8093;DHT22;4089;52.420;13.334;2023-04-25T13:18:54;11.10;78.90
8093;DHT22;4089;52.420;13.334;2023-04-25T13:21:22;11.10;80.70
8093;DHT22;4089;52.420;13.334;2023-04-25T13:23:49;11.10;78.80
8093;DHT22;4089;52.420;13.334;2023-04-25T13:26:17;11.50;79.90
8093;DHT22;4089;52.420;13.334;2023-04-25T13:28:44;11.50;77.60
8093;DHT22;4089;52.420;13.334;2023-04-25T13:31:11;11.60;77.40
8093;DHT22;4089;52.420;13.334;2023-04-25T13:33:38;11.90;75.40
8093;DHT22;4089;52.420;13.334;2023-04-25T13:36:05;11.80;75.20
8093;DHT22;4089;52.420;13.334;2023-04-25T13:38:32;11.80;75.10
8093;DHT22;4089;52.420;13.334;2023-04-25T13:40:59;11.60;74.00
8093;DHT22;4089;52.420;13.334;2023-04-25T13:43:26;11.70;76.10
8093;DHT22;4089;52.420;13.334;2023-04-25T13:45:53;11.70;75.80
8093;DHT22;4089;52.420;13.334;2023-04-25T13:48:20;11.60;74.70
8093;DHT22;4089;52.420;13.334;2023-04-25T13:50:47;11.60;76.10
8093;DHT22;4089;52.420;13.334;2023-04-25T13:53:14;11.60;75.60
8093;DHT22;4089;52.420;13.334;2023-04-25T13:55:41;11.50;75.20
8093;DHT22;4089;52.420;13.334;2023-04-25T13:58:07;11.30;75.10
8093;DHT22;4089;52.420;13.334;2023-04-25T14:00:39;11.00;75.20
8093;DHT22;4089;52.420;13.334;2023-04-25T14:03:07;10.90;76.50
8093;DHT22;4089;52.420;13.334;2023-04-25T14:05:36;11.00;77.10
8093;DHT22;4089;52.420;13.334;2023-04-25T14:08:08;11.00;78.50
8093;DHT22;4089;52.420;13.334;2023-04-25T14:10:36;10.70;78.30
8093;DHT22;4089;52.420;13.334;2023-04-25T14:13:03;10.60;78.80
8093;DHT22;4089;52.420;13.334;2023-04-25T14:15:34;10.50;79.50
8093;DHT22;4089;52.420;13.334;2023-04-25T14:18:01;10.60;80.80
8093;DHT22;4089;52.420;13.334;2023-04-25T14:20:29;10.50;82.70
8093;DHT22;4089;52.420;13.334;2023-04-25T14:22:56;10.40;81.10
8093;DHT22;4089;52.420;13.334;2023-04-25T14:25:25;10.30;80.50
8093;DHT22;4089;52.420;13.334;2023-04-25T14:27:52;10.10;80.80
8093;DHT22;4089;52.420;13.334;2023-04-25T14:30:20;10.10;82.30
8093;DHT22;4089;52.420;13.334;2023-04-25T14:32:48;10.20;82.60
8093;DHT22;4089;52.420;13.334;2023-04-25T14:35:16;10.20;83.70
8093;DHT22;4089;52.420;13.334;2023-04-25T14:37:43;10.00;81.50
8093;DHT22;4089;52.420;13.334;2023-04-25T14:40:10;10.00;82.10
8093;DHT22;4089;52.420;13.334;2023-04-25T14:42:39;10.00;82.90
8093;DHT22;4089;52.420;13.334;2023-04-25T14:45:07;10.10;84.10
8093;DHT22;4089;52.420;13.334;2023-04-25T14:47:38;10.30;84.10
8093;DHT22;4089;52.420;13.334;2023-04-25T14:50:06;10.40;84.00
8093;DHT22;4089;52.420;13.334;2023-04-25T14:52:34;10.40;83.60
8093;DHT22;4089;52.420;13.334;2023-04-25T14:55:01;10.50;84.10
8093;DHT22;4089;52.420;13.334;2023-04-25T14:57:32;10.70;84.30
8093;DHT22;4089;52.420;13.334;2023-04-25T15:00:00;10.80;83.20
8093;DHT22;4089;52.420;13.334;2023-04-25T15:02:28;10.80;81.40
8093;DHT22;4089;52.420;13.334;2023-04-25T15:04:55;10.70;82.00
8093;DHT22;4089;52.420;13.334;2023-04-25T15:07:22;10.60;82.70
8093;DHT22;4089;52.420;13.334;2023-04-25T15:09:49;10.50;84.20
8093;DHT22;4089;52.420;13.334;2023-04-25T15:12:16;10.60;85.50
8093;DHT22;4089;52.420;13.334;2023-04-25T15:14:43;10.50;84.90
8093;DHT22;4089;52.420;13.334;2023-04-25T15:17:10;10.50;85.40
8093;DHT22;4089;52.420;13.334;2023-04-25T15:19:39;10.50;86.10
8093;DHT22;4089;52.420;13.334;2023-04-25T15:22:06;10.50;85.80
8093;DHT22;4089;52.420;13.334;2023-04-25T15:24:33;10.50;86.30
8093;DHT22;4089;52.420;13.334;2023-04-25T15:27:00;10.60;86.90
8093;DHT22;4089;52.420;13.334;2023-04-25T15:29:26;10.70;86.60
8093;DHT22;4089;52.420;13.334;2023-04-25T15:31:53;10.80;86.00
8093;DHT22;4089;52.420;13.334;2023-04-25T15:34:20;10.80;86.50
8093;DHT22;4089;52.420;13.334;2023-04-25T15:36:47;10.90;86.80
8093;DHT22;4089;52.420;13.334;2023-04-25T15:39:14;11.00;86.10
8093;DHT22;4089;52.420;13.334;2023-04-25T15:41:41;11.30;83.90
8093;DHT22;4089;52.420;13.334;2023-04-25T15:44:08;11.20;82.80
8093;DHT22;4089;52.420;13.334;2023-04-25T15:46:36;11.10;81.80
8093;DHT22;4089;52.420;13.334;2023-04-25T15:49:03;11.00;82.50
8093;DHT22;4089;52.420;13.334;2023-04-25T15:51:30;11.00;84.20
8093;DHT22;4089;52.420;13.334;2023-04-25T15:53:57;10.70;82.70
8093;DHT22;4089;52.420;13.334;2023-04-25T15:56:24;10.50;84.20
8093;DHT22;4089;52.420;13.334;2023-04-25T15:58:50;10.50;84.30
8093;DHT22;4089;52.420;13.334;2023-04-25T16:01:18;10.60;86.10
8093;DHT22;4089;52.420;13.334;2023-04-25T16:03:44;10.50;85.40